Time;durP1;ratioP1;P1;durP2;ratioP2;P2;SDS_P1;SDS_P2;PMS_P1;PMS_P2;Temp;Humidity;BMP_temperature;BMP_pressure;BME280_temperature;BME280_humidity;BME280_pressure;Samples;Min_cycle;Max_cycle;Signal;HPM_P1;HPM_P2
2024/01/03 00:00:22;;;;;;;11.57;2.13;;;10.40;99.90;;;;;;5078547;28;20048;-68
2024/01/03 00:02:48;;;;;;;12.18;2.42;;;10.40;99.90;;;;;;5070331;28;20031;-68
2024/01/03 00:05:14;;;;;;;6.43;1.45;;;10.50;99.90;;;;;;5076642;28;20033;-68
2024/01/03 00:07:41;;;;;;;8.43;1.80;;;10.40;99.90;;;;;;5073327;28;20356;-68
2024/01/03 00:10:37;;;;;;;13.43;2.50;;;10.40;99.90;;;;;;5079425;28;20043;-68
2024/01/03 00:13:24;;;;;;;10.70;2.35;;;10.40;99.90;;;;;;5079766;28;20020;-68
2024/01/03 00:15:59;;;;;;;13.20;1.92;;;10.40;99.90;;;;;;5076260;28;20032;-68
2024/01/03 00:18:46;;;;;;;15.38;2.42;;;10.40;99.90;;;;;;5074431;28;20023;-68
2024/01/03 00:21:18;;;;;;;12.80;2.38;;;10.30;99.90;;;;;;5075854;28;20533;-68
2024/01/03 00:23:51;;;;;;;17.73;1.90;;;10.10;99.90;;;;;;5072449;28;20539;-68
2024/01/03 00:26:18;;;;;;;9.93;2.00;;;10.00;99.90;;;;;;5073644;28;20383;-68
2024/01/03 00:28:44;;;;;;;9.63;2.00;;;9.90;99.90;;;;;;5072485;28;20027;-68
2024/01/03 00:31:12;;;;;;;10.32;1.83;;;9.70;99.90;;;;;;5073723;28;20052;-68
2024/01/03 00:33:41;;;;;;;10.93;1.42;;;9.70;99.90;;;;;;5072260;28;20020;-68
2024/01/03 00:36:09;;;;;;;12.38;2.42;;;9.60;99.90;;;;;;5078629;28;20024;-68
2024/01/03 00:38:38;;;;;;;7.95;1.90;;;9.50;99.90;;;;;;5074911;28;20109;-69
2024/01/03 00:41:04;;;;;;;7.55;1.50;;;9.40;99.90;;;;;;5076234;28;20489;-68
2024/01/03 00:43:30;;;;;;;12.80;2.42;;;9.30;99.90;;;;;;5074676;28;20024;-68
2024/01/03 00:45:56;;;;;;;18.50;2.38;;;9.20;99.90;;;;;;5075289;28;20099;-68
2024/01/03 00:48:22;;;;;;;13.27;2.55;;;9.20;99.90;;;;;;5073221;28;20421;-67
2024/01/03 00:50:48;;;;;;;14.25;1.92;;;9.10;99.90;;;;;;5075728;28;20048;-68
2024/01/03 00:53:15;;;;;;;7.32;1.58;;;9.10;99.90;;;;;;5075688;28;20020;-68
2024/01/03 00:55:42;;;;;;;12.55;2.10;;;9.00;99.90;;;;;;5072918;28;20511;-67
2024/01/03 00:58:09;;;;;;;14.18;2.03;;;9.00;99.90;;;;;;5075575;28;20031;-68
2024/01/03 01:00:36;;;;;;;9.98;2.05;;;8.90;99.90;;;;;;5072483;28;20411;-68
2024/01/03 01:03:03;;;;;;;8.05;1.75;;;9.00;99.90;;;;;;5075091;28;20017;-67
2024/01/03 01:05:28;;;;;;;10.98;2.40;;;9.10;99.90;;;;;;5074715;28;20024;-68
2024/01/03 01:07:54;;;;;;;7.43;1.55;;;9.10;99.90;;;;;;5074286;28;20372;-68
2024/01/03 01:10:20;;;;;;;10.85;1.50;;;9.30;99.90;;;;;;5074912;28;20044;-67
2024/01/03 01:12:45;;;;;;;7.18;1.77;;;9.20;99.90;;;;;;5073692;28;20537;-67
2024/01/03 01:15:11;;;;;;;14.55;2.30;;;9.10;99.90;;;;;;5074387;28;20024;-68
2024/01/03 01:17:37;;;;;;;11.20;1.92;;;9.10;99.90;;;;;;5075399;28;20033;-68
2024/01/03 01:20:03;;;;;;;12.18;2.53;;;9.00;99.90;;;;;;5075527;28;20032;-68
2024/01/03 01:22:29;;;;;;;12.80;1.90;;;8.90;99.90;;;;;;5075775;28;20012;-68
2024/01/03 01:24:54;;;;;;;8.30;2.03;;;8.90;99.90;;;;;;5077382;28;20016;-68
2024/01/03 01:27:20;;;;;;;11.35;2.30;;;9.00;99.90;;;;;;5073814;28;20043;-68
2024/01/03 01:29:45;;;;;;;10.73;2.03;;;9.00;99.90;;;;;;5074294;28;20530;-68
2024/01/03 01:32:11;;;;;;;10.43;1.80;;;9.00;99.90;;;;;;5072914;28;20020;-68
2024/01/03 01:34:37;;;;;;;9.40;1.77;;;9.00;99.90;;;;;;5073257;28;20051;-68
2024/01/03 01:37:02;;;;;;;5.07;1.20;;;8.90;99.90;;;;;;5070726;28;20490;-68
2024/01/03 01:39:28;;;;;;;9.80;1.50;;;9.00;99.90;;;;;;5071724;28;20054;-68
2024/01/03 01:41:53;;;;;;;3.65;1.13;;;9.00;99.90;;;;;;5072268;28;20043;-68
2024/01/03 01:44:19;;;;;;;6.20;1.58;;;9.00;99.90;;;;;;5072002;28;20404;-68
2024/01/03 01:46:46;;;;;;;7.43;1.55;;;9.00;99.90;;;;;;5072585;28;20059;-67
2024/01/03 01:49:16;;;;;;;6.80;1.50;;;9.00;99.90;;;;;;5072962;28;20023;-68
2024/01/03 01:51:41;;;;;;;10.93;1.65;;;9.00;99.90;;;;;;5073617;28;20020;-68
2024/01/03 01:54:07;;;;;;;9.13;1.60;;;9.00;99.90;;;;;;5069929;28;20070;-68
2024/01/03 01:56:33;;;;;;;6.07;1.65;;;9.00;99.90;;;;;;5074386;28;20036;-68
2024/01/03 01:58:59;;;;;;;12.40;2.33;;;9.00;99.90;;;;;;5073649;28;20380;-68
2024/01/03 02:01:27;;;;;;;8.77;1.52;;;9.10;99.90;;;;;;5073110;28;20036;-68
2024/01/03 02:03:53;;;;;;;14.30;2.63;;;9.00;99.90;;;;;;5074235;28;20508;-69
2024/01/03 02:06:21;;;;;;;16.92;2.35;;;9.10;99.90;;;;;;5073613;28;20056;-68
2024/01/03 02:08:47;;;;;;;11.60;1.65;;;9.10;99.90;;;;;;5072806;28;20069;-68
2024/01/03 02:11:14;;;;;;;14.30;2.20;;;9.20;99.90;;;;;;5075100;28;20044;-68
2024/01/03 02:13:44;;;;;;;5.15;1.40;;;9.10;99.90;;;;;;5074708;28;20082;-67
2024/01/03 02:16:09;;;;;;;;;;;9.20;99.90;;;;;;5073088;28;20936;-68
2024/01/03 02:18:36;;;;;;;17.30;2.75;;;9.20;99.90;;;;;;5075498;28;19904;-68
2024/01/03 02:21:02;;;;;;;9.93;1.90;;;9.20;99.90;;;;;;5076449;28;20441;-68
2024/01/03 02:23:28;;;;;;;12.75;2.47;;;9.30;99.90;;;;;;5077035;28;20023;-68
2024/01/03 02:25:53;;;;;;;9.25;1.77;;;9.30;99.90;;;;;;5075679;28;20456;-68
2024/01/03 02:28:19;;;;;;;8.65;1.70;;;9.30;99.90;;;;;;5076704;28;20020;-68
2024/01/03 02:30:45;;;;;;;26.92;4.00;;;9.20;99.90;;;;;;5074513;28;20051;-67
2024/01/03 02:33:11;;;;;;;10.65;2.00;;;9.10;99.90;;;;;;5075624;28;20040;-68
2024/01/03 02:35:37;;;;;;;9.68;1.92;;;9.00;99.90;;;;;;5076543;28;20473;-68
2024/01/03 02:38:03;;;;;;;7.68;1.83;;;9.00;99.90;;;;;;5073835;28;20111;-68
2024/01/03 02:40:29;;;;;;;7.03;1.73;;;8.90;99.90;;;;;;5076415;28;20028;-68
2024/01/03 02:42:55;;;;;;;12.50;2.15;;;9.00;99.90;;;;;;5077182;28;20031;-67
2024/01/03 02:45:20;;;;;;;10.30;1.70;;;9.00;99.90;;;;;;5077100;28;20024;-68
2024/01/03 02:47:46;;;;;;;13.55;1.88;;;9.10;99.90;;;;;;5071709;28;20507;-68
2024/01/03 02:50:11;;;;;;;11.85;2.10;;;9.10;99.90;;;;;;5070269;28;20395;-67
2024/01/03 02:52:37;;;;;;;8.20;1.98;;;9.00;99.90;;;;;;5072053;28;20032;-68
2024/01/03 02:55:03;;;;;;;6.80;1.40;;;8.90;99.90;;;;;;5071392;28;20356;-68
2024/01/03 02:57:28;;;;;;;7.97;1.60;;;8.80;99.90;;;;;;5070437;28;20055;-68
2024/01/03 02:59:54;;;;;;;8.77;2.45;;;8.80;99.90;;;;;;5072135;28;20434;-68
2024/01/03 03:02:20;;;;;;;6.55;1.35;;;8.80;99.90;;;;;;5069381;28;20040;-68
2024/01/03 03:04:45;;;;;;;8.05;1.80;;;8.80;99.90;;;;;;5072692;28;20020;-68
2024/01/03 03:07:11;;;;;;;14.45;2.10;;;8.80;99.90;;;;;;5071503;28;20049;-67
2024/01/03 03:09:36;;;;;;;6.88;1.48;;;8.60;99.90;;;;;;5071490;28;20021;-68
2024/01/03 03:12:02;;;;;;;9.82;2.05;;;8.60;99.90;;;;;;5072663;28;20033;-68
2024/01/03 03:14:28;;;;;;;7.47;1.55;;;8.70;99.90;;;;;;5062764;28;20028;-68
2024/01/03 03:16:54;;;;;;;9.02;1.23;;;8.70;99.90;;;;;;5073752;28;20017;-68
2024/01/03 03:19:19;;;;;;;9.90;1.70;;;8.70;99.90;;;;;;5070681;28;20735;-67
2024/01/03 03:21:45;;;;;;;9.27;1.83;;;8.80;99.90;;;;;;5074001;28;20052;-67
2024/01/03 03:24:10;;;;;;;10.20;1.30;;;8.80;99.90;;;;;;5074125;28;20029;-68
2024/01/03 03:26:36;;;;;;;10.68;1.45;;;8.90;99.90;;;;;;5078179;28;20033;-68
2024/01/03 03:29:02;;;;;;;10.95;1.63;;;8.90;99.90;;;;;;5077773;28;20024;-68
2024/01/03 03:31:27;;;;;;;13.43;2.03;;;9.00;99.90;;;;;;5075204;28;20113;-68
2024/01/03 03:33:53;;;;;;;7.05;1.70;;;9.00;99.90;;;;;;5075119;28;20471;-68
2024/01/03 03:36:20;;;;;;;7.25;1.40;;;9.10;99.90;;;;;;5076520;28;20023;-68
2024/01/03 03:38:47;;;;;;;8.25;1.40;;;9.20;99.90;;;;;;5080148;28;20016;-68
2024/01/03 03:41:13;;;;;;;8.50;2.42;;;9.30;99.90;;;;;;5077857;28;20028;-68
2024/01/03 03:43:39;;;;;;;6.63;1.38;;;9.30;99.90;;;;;;5078717;28;20021;-68
2024/01/03 03:46:06;;;;;;;8.48;1.90;;;9.20;99.90;;;;;;5078444;28;20407;-68
2024/01/03 03:48:32;;;;;;;8.90;1.75;;;9.20;99.90;;;;;;5075329;28;20012;-67
2024/01/03 03:50:58;;;;;;;10.18;1.98;;;9.20;99.90;;;;;;5077564;28;20066;-68
2024/01/03 03:53:24;;;;;;;9.13;1.42;;;9.20;99.90;;;;;;5077369;28;20028;-68
2024/01/03 03:55:49;;;;;;;7.35;1.52;;;9.20;99.90;;;;;;5077652;28;20705;-69
2024/01/03 03:58:15;;;;;;;9.90;1.45;;;9.10;99.90;;;;;;5079934;28;20020;-68
2024/01/03 04:00:40;;;;;;;8.02;1.75;;;9.10;99.90;;;;;;5075749;28;20049;-68
2024/01/03 04:03:08;;;;;;;10.32;1.27;;;9.20;99.90;;;;;;5075942;28;20070;-69
2024/01/03 04:05:37;;;;;;;6.60;1.50;;;9.20;99.90;;;;;;5074368;28;20012;-68
2024/01/03 04:08:05;;;;;;;8.32;1.45;;;9.20;99.90;;;;;;5076433;28;20077;-68
2024/01/03 04:10:31;;;;;;;14.32;2.13;;;9.30;99.90;;;;;;5074992;28;20079;-68
2024/01/03 04:12:57;;;;;;;7.25;1.33;;;9.40;99.90;;;;;;5074241;28;20048;-68
2024/01/03 04:15:24;;;;;;;3.90;1.30;;;9.50;99.90;;;;;;5074581;28;20028;-68
2024/01/03 04:17:50;;;;;;;7.95;1.40;;;9.40;99.90;;;;;;5075399;28;20101;-68
2024/01/03 04:20:16;;;;;;;7.65;1.20;;;;;;;;;;5076211;28;20035;-70
2024/01/03 04:22:44;;;;;;;7.88;1.23;;;9.40;99.90;;;;;;5075534;28;20028;-70
2024/01/03 04:25:10;;;;;;;7.80;1.40;;;9.40;99.90;;;;;;5073570;28;20032;-69
2024/01/03 04:27:36;;;;;;;8.15;1.80;;;9.40;99.90;;;;;;5073593;28;20032;-70
2024/01/03 04:30:03;;;;;;;6.05;1.55;;;9.40;99.90;;;;;;5077029;28;20039;-70
2024/01/03 04:32:29;;;;;;;5.63;1.30;;;9.50;99.90;;;;;;5075003;28;20445;-69
2024/01/03 04:34:55;;;;;;;6.20;1.08;;;9.40;99.90;;;;;;5060775;28;20017;-70
2024/01/03 04:37:20;;;;;;;7.35;1.40;;;9.40;99.90;;;;;;5075004;28;20028;-70
2024/01/03 04:39:46;;;;;;;8.52;1.48;;;9.40;99.90;;;;;;5076092;28;20748;-69
2024/01/03 04:42:12;;;;;;;9.40;1.80;;;9.30;99.90;;;;;;5078196;28;20027;-69
2024/01/03 04:44:37;;;;;;;5.22;1.30;;;9.30;99.90;;;;;;5075956;28;20062;-69
2024/01/03 04:47:03;;;;;;;7.78;1.60;;;9.30;99.90;;;;;;5078722;28;20024;-69
2024/01/03 04:49:29;;;;;;;9.57;1.92;;;9.30;99.90;;;;;;5077043;28;20028;-69
2024/01/03 04:51:55;;;;;;;8.80;1.75;;;9.30;99.90;;;;;;5077468;28;20024;-69
2024/01/03 04:54:21;;;;;;;11.00;2.00;;;9.20;99.90;;;;;;5077336;28;20013;-69
2024/01/03 04:56:47;;;;;;;3.63;1.10;;;9.20;99.90;;;;;;5078585;28;20348;-69
2024/01/03 04:59:12;;;;;;;4.75;1.48;;;9.20;99.90;;;;;;5079962;28;20028;-70
2024/01/03 05:01:40;;;;;;;8.70;2.53;;;9.30;99.90;;;;;;5071107;28;20048;-69
2024/01/03 05:04:06;;;;;;;9.32;1.63;;;9.30;99.90;;;;;;5077610;28;20025;-69
2024/01/03 05:06:32;;;;;;;8.23;1.73;;;9.20;99.90;;;;;;5077228;28;20027;-69
2024/01/03 05:08:58;;;;;;;14.27;2.33;;;9.30;99.90;;;;;;5078798;28;20024;-69
2024/01/03 05:11:24;;;;;;;8.05;1.88;;;9.30;99.90;;;;;;5079255;28;20047;-69
2024/01/03 05:13:49;;;;;;;11.88;1.92;;;9.30;99.90;;;;;;5078313;28;20028;-68
2024/01/03 05:16:15;;;;;;;7.63;2.13;;;9.30;99.90;;;;;;5074546;28;20103;-69
2024/01/03 05:18:41;;;;;;;9.55;2.17;;;9.30;99.90;;;;;;5073907;28;20060;-69
2024/01/03 05:21:06;;;;;;;8.95;1.77;;;9.30;99.90;;;;;;5072727;28;20115;-69
2024/01/03 05:23:32;;;;;;;6.47;1.85;;;9.40;99.90;;;;;;5071244;28;20024;-69
2024/01/03 05:25:58;;;;;;;5.32;1.38;;;9.40;99.90;;;;;;5072911;28;20078;-69
2024/01/03 05:28:23;;;;;;;8.70;2.08;;;9.50;99.90;;;;;;5071488;28;20051;-69
2024/01/03 05:30:49;;;;;;;6.15;1.63;;;9.50;99.90;;;;;;5068805;28;20446;-69
2024/01/03 05:33:15;;;;;;;6.05;1.38;;;9.50;99.90;;;;;;5070783;28;20016;-69
2024/01/03 05:35:40;;;;;;;6.15;1.45;;;9.50;99.90;;;;;;5065541;28;20036;-68
2024/01/03 05:38:07;;;;;;;7.20;1.23;;;9.60;99.90;;;;;;5077462;28;20032;-69
2024/01/03 05:40:32;;;;;;;7.32;1.58;;;9.60;99.90;;;;;;5074364;28;20012;-67
2024/01/03 05:42:58;;;;;;;5.35;1.23;;;9.60;99.90;;;;;;5083858;28;20382;-68
2024/01/03 05:45:23;;;;;;;6.95;1.60;;;9.70;99.90;;;;;;5083083;28;20028;-67
2024/01/03 05:47:49;;;;;;;7.20;1.33;;;9.60;99.90;;;;;;5085734;28;20429;-68
2024/01/03 05:50:15;;;;;;;8.23;1.65;;;9.60;99.90;;;;;;5083383;28;20024;-68
2024/01/03 05:52:41;;;;;;;7.68;1.23;;;9.60;99.90;;;;;;5085424;28;20103;-68
2024/01/03 05:55:07;;;;;;;7.03;1.45;;;9.60;99.90;;;;;;5078139;28;20513;-67
2024/01/03 05:57:35;;;;;;;4.15;1.02;;;9.60;99.90;;;;;;5084772;28;20020;-68
2024/01/03 06:00:02;;;;;;;6.25;1.60;;;9.60;99.90;;;;;;5084268;28;20097;-67
2024/01/03 06:02:28;;;;;;;7.47;1.02;;;9.50;99.90;;;;;;5085557;28;20024;-67
2024/01/03 06:04:54;;;;;;;5.18;1.05;;;9.50;99.90;;;;;;5081733;28;20086;-67
2024/01/03 06:07:19;;;;;;;9.15;2.13;;;9.50;99.90;;;;;;5081501;28;20028;-68
2024/01/03 06:09:45;;;;;;;4.35;1.38;;;9.50;99.90;;;;;;5081144;28;20029;-68
2024/01/03 06:12:11;;;;;;;7.80;1.58;;;9.60;99.90;;;;;;5076280;28;20430;-68
2024/01/03 06:14:36;;;;;;;7.82;1.42;;;9.60;99.90;;;;;;5081265;28;20032;-68
2024/01/03 06:17:02;;;;;;;4.88;1.40;;;9.60;99.90;;;;;;5075748;28;20032;-68
2024/01/03 06:19:27;;;;;;;7.20;1.33;;;9.40;99.90;;;;;;5074440;28;20020;-68
2024/01/03 06:21:53;;;;;;;9.15;1.80;;;9.30;99.90;;;;;;5073910;28;20034;-69
2024/01/03 06:24:19;;;;;;;6.03;1.23;;;9.30;99.90;;;;;;5072543;28;20032;-68
2024/01/03 06:26:44;;;;;;;5.93;1.10;;;9.20;99.90;;;;;;5073656;28;20020;-68
2024/01/03 06:29:10;;;;;;;8.10;1.63;;;9.10;99.90;;;;;;5082768;28;20395;-68
2024/01/03 06:31:36;;;;;;;7.10;1.40;;;9.20;99.90;;;;;;5072413;28;20027;-68
2024/01/03 06:34:02;;;;;;;5.50;1.50;;;9.20;99.90;;;;;;5077681;28;20039;-68
2024/01/03 06:36:28;;;;;;;4.10;0.98;;;9.20;99.90;;;;;;5081971;28;20099;-68
2024/01/03 06:38:53;;;;;;;6.32;1.70;;;9.20;99.90;;;;;;5073987;28;20028;-68
2024/01/03 06:41:19;;;;;;;8.30;1.55;;;9.20;99.90;;;;;;5078927;28;20077;-68
2024/01/03 06:43:45;;;;;;;9.50;1.58;;;9.20;99.90;;;;;;5075120;28;20032;-68
2024/01/03 06:46:11;;;;;;;4.97;1.25;;;9.20;99.90;;;;;;5069492;28;20119;-68
2024/01/03 06:48:36;;;;;;;5.55;1.05;;;9.10;99.90;;;;;;5074984;28;20181;-68
2024/01/03 06:51:03;;;;;;;6.82;1.23;;;9.10;99.90;;;;;;5080004;28;20024;-68
2024/01/03 06:53:30;;;;;;;11.20;1.27;;;8.90;99.90;;;;;;5075234;28;20392;-68
2024/01/03 06:55:56;;;;;;;4.95;1.40;;;8.80;99.90;;;;;;5068032;28;20025;-68
2024/01/03 06:58:22;;;;;;;6.63;1.48;;;8.70;99.90;;;;;;5068389;28;20076;-68
2024/01/03 07:00:48;;;;;;;9.85;1.67;;;8.80;99.90;;;;;;5067614;28;20143;-68
2024/01/03 07:03:15;;;;;;;8.55;1.52;;;8.70;99.90;;;;;;5063722;28;20090;-68
2024/01/03 07:05:41;;;;;;;6.18;1.50;;;8.70;99.90;;;;;;5067278;28;20377;-68
2024/01/03 07:08:07;;;;;;;5.90;1.60;;;8.60;99.90;;;;;;5071809;28;20052;-68
2024/01/03 07:10:34;;;;;;;14.20;2.33;;;8.70;99.90;;;;;;5079527;28;20020;-68
2024/01/03 07:13:00;;;;;;;9.05;1.60;;;8.70;99.90;;;;;;5076992;28;20028;-68
2024/01/03 07:15:27;;;;;;;2.55;0.95;;;8.60;99.90;;;;;;5077130;28;20063;-68
2024/01/03 07:17:55;;;;;;;2.83;0.93;;;8.60;99.90;;;;;;5078121;28;20052;-68
2024/01/03 07:20:24;;;;;;;6.50;1.48;;;8.70;99.90;;;;;;5078915;28;20024;-69
2024/01/03 07:22:50;;;;;;;4.47;1.42;;;8.60;99.90;;;;;;5078587;28;20025;-68
2024/01/03 07:25:16;;;;;;;4.68;1.40;;;8.60;99.90;;;;;;5079174;28;20469;-67
2024/01/03 07:27:42;;;;;;;8.50;1.55;;;8.50;99.90;;;;;;5076831;28;20017;-67
2024/01/03 07:30:09;;;;;;;10.32;1.83;;;8.50;99.90;;;;;;5078683;28;20028;-67
2024/01/03 07:32:34;;;;;;;7.40;1.80;;;8.50;99.90;;;;;;5074695;28;20095;-67
2024/01/03 07:35:00;;;;;;;8.55;1.83;;;8.50;99.90;;;;;;5080018;28;20111;-67
2024/01/03 07:37:26;;;;;;;7.35;1.70;;;8.50;99.90;;;;;;5075826;28;20549;-67
2024/01/03 07:39:52;;;;;;;8.20;1.83;;;8.40;99.90;;;;;;5085680;28;20028;-67
2024/01/03 07:42:17;;;;;;;4.07;1.50;;;8.40;99.90;;;;;;5078853;28;20374;-67
2024/01/03 07:44:43;;;;;;;9.85;1.75;;;8.50;99.90;;;;;;5077120;28;20129;-67
2024/01/03 07:47:10;;;;;;;8.13;1.63;;;8.40;99.90;;;;;;5084034;28;20025;-67
2024/01/03 07:49:37;;;;;;;7.60;1.83;;;8.40;99.90;;;;;;5078466;28;20069;-67
2024/01/03 07:52:03;;;;;;;11.98;2.38;;;8.50;99.90;;;;;;5075103;28;20474;-67
2024/01/03 07:54:29;;;;;;;10.98;1.80;;;8.60;99.90;;;;;;5075618;28;20024;-67
2024/01/03 07:56:56;;;;;;;17.05;2.38;;;8.60;99.90;;;;;;5075835;28;20256;-67
2024/01/03 07:59:22;;;;;;;6.68;1.92;;;8.70;99.90;;;;;;5075486;28;20020;-67
2024/01/03 08:01:47;;;;;;;15.50;2.33;;;8.80;99.90;;;;;;5076646;28;20500;-67
2024/01/03 08:04:16;;;;;;;12.52;2.25;;;8.70;99.90;;;;;;5077274;28;20040;-67
2024/01/03 08:06:42;;;;;;;10.30;2.75;;;8.80;99.90;;;;;;5083773;28;20036;-67
2024/01/03 08:09:07;;;;;;;7.80;1.70;;;8.80;99.90;;;;;;5079466;28;20043;-67
2024/01/03 08:11:33;;;;;;;10.90;2.30;;;8.90;99.90;;;;;;5077038;28;20024;-67
2024/01/03 08:13:59;;;;;;;16.05;2.08;;;8.90;99.90;;;;;;5083541;28;20024;-67
2024/01/03 08:16:25;;;;;;;9.27;1.80;;;9.00;99.90;;;;;;5078653;28;20036;-67
2024/01/03 08:18:50;;;;;;;8.27;1.60;;;9.00;99.90;;;;;;5082315;28;20119;-67
2024/01/03 08:21:16;;;;;;;9.20;1.80;;;9.20;99.90;;;;;;5081638;28;20031;-67
2024/01/03 08:23:42;;;;;;;6.93;1.60;;;9.20;99.90;;;;;;5080446;28;20026;-67
2024/01/03 08:26:12;;;;;;;9.85;1.60;;;9.10;99.90;;;;;;5082424;28;20503;-67
2024/01/03 08:28:41;;;;;;;14.57;2.28;;;9.10;99.90;;;;;;5079933;28;20086;-67
2024/01/03 08:31:13;;;;;;;8.40;2.08;;;8.90;99.90;;;;;;5079572;28;20442;-67
2024/01/03 08:33:38;;;;;;;9.45;1.52;;;8.80;99.90;;;;;;5080243;28;20043;-68
2024/01/03 08:36:04;;;;;;;8.50;1.52;;;8.80;99.90;;;;;;5082897;28;20029;-68
2024/01/03 08:38:31;;;;;;;7.45;1.55;;;8.80;99.90;;;;;;5078803;28;20028;-67
2024/01/03 08:40:56;;;;;;;7.88;1.40;;;8.80;99.90;;;;;;5082772;28;20020;-68
2024/01/03 08:43:22;;;;;;;6.13;1.73;;;8.80;99.90;;;;;;5079027;28;20040;-68
2024/01/03 08:45:47;;;;;;;7.78;1.50;;;8.80;99.90;;;;;;5088444;28;20025;-68
2024/01/03 08:48:13;;;;;;;5.57;1.60;;;8.80;99.90;;;;;;5081915;28;20103;-68
2024/01/03 08:50:38;;;;;;;5.28;1.60;;;8.80;99.90;;;;;;5083113;28;20020;-68
2024/01/03 08:53:04;;;;;;;6.03;1.10;;;8.80;99.90;;;;;;5080643;28;20024;-68
2024/01/03 08:55:30;;;;;;;16.25;1.45;;;8.70;99.90;;;;;;5085960;28;20024;-68
2024/01/03 08:57:56;;;;;;;6.75;1.58;;;8.70;99.90;;;;;;5076633;28;20027;-68
2024/01/03 09:00:24;;;;;;;2.72;1.02;;;8.70;99.90;;;;;;5079066;28;20450;-68
2024/01/03 09:02:50;;;;;;;5.53;1.20;;;8.60;99.90;;;;;;5086885;28;20032;-68
2024/01/03 09:05:16;;;;;;;4.40;1.27;;;8.60;99.90;;;;;;5080101;28;20451;-68
2024/01/03 09:07:45;;;;;;;6.40;1.25;;;8.40;99.90;;;;;;5080211;28;20104;-67
2024/01/03 09:10:11;;;;;;;5.10;1.27;;;8.30;99.90;;;;;;5080879;28;20016;-68
2024/01/03 09:12:36;;;;;;;8.75;1.70;;;8.10;99.90;;;;;;5085854;28;20025;-67
2024/01/03 09:15:03;;;;;;;3.83;1.08;;;8.20;99.90;;;;;;5081797;28;20027;-67
2024/01/03 09:17:29;;;;;;;6.13;1.40;;;8.10;99.90;;;;;;5084720;28;20112;-67
2024/01/03 09:19:54;;;;;;;4.32;1.08;;;8.10;99.90;;;;;;5081126;28;20114;-67
2024/01/03 09:22:20;;;;;;;16.17;2.13;;;8.10;99.90;;;;;;5078232;28;20063;-68
2024/01/03 09:24:45;;;;;;;6.72;1.65;;;8.10;99.90;;;;;;5080865;28;20029;-68
2024/01/03 09:27:11;;;;;;;9.52;1.45;;;8.10;99.90;;;;;;5082004;28;20025;-67
2024/01/03 09:29:37;;;;;;;6.28;1.40;;;8.20;99.90;;;;;;5077512;28;20088;-67
2024/01/03 09:32:03;;;;;;;11.85;1.90;;;8.20;99.90;;;;;;5079688;28;20060;-68
2024/01/03 09:34:28;;;;;;;10.18;2.15;;;8.30;99.90;;;;;;5078269;28;20082;-68
2024/01/03 09:36:54;;;;;;;8.60;1.52;;;8.50;99.90;;;;;;5077892;28;20033;-68
2024/01/03 09:39:20;;;;;;;9.55;1.60;;;8.40;99.90;;;;;;5081782;28;20028;-68
2024/01/03 09:41:47;;;;;;;10.68;1.73;;;8.50;99.90;;;;;;5078603;28;20036;-68
2024/01/03 09:44:12;;;;;;;10.20;1.60;;;8.50;99.90;;;;;;5087574;28;20503;-68
2024/01/03 09:46:38;;;;;;;9.07;2.17;;;8.50;99.90;;;;;;5079197;28;20063;-68
2024/01/03 09:49:04;;;;;;;8.40;1.55;;;8.50;99.90;;;;;;5079233;28;20021;-68
2024/01/03 09:51:31;;;;;;;5.30;1.23;;;8.50;99.90;;;;;;5080312;28;20597;-68
2024/01/03 09:53:56;;;;;;;11.10;1.60;;;8.50;99.90;;;;;;5074336;28;20047;-68
2024/01/03 09:56:22;;;;;;;14.00;1.70;;;8.50;99.90;;;;;;5079292;28;20063;-67
2024/01/03 09:58:48;;;;;;;13.07;1.95;;;8.50;99.90;;;;;;5078712;28;20036;-67
2024/01/03 10:01:13;;;;;;;12.27;2.13;;;8.40;99.90;;;;;;5077132;28;20044;-68
2024/01/03 10:03:39;;;;;;;14.05;2.70;;;8.50;99.90;;;;;;5079609;28;20032;-68
2024/01/03 10:06:13;;;;;;;19.02;3.13;;;8.40;99.90;;;;;;5079625;28;20032;-68
2024/01/03 10:08:40;;;;;;;8.90;2.17;;;8.40;99.90;;;;;;5079393;28;20048;-68
2024/01/03 10:11:22;;;;;;;12.05;2.65;;;8.40;99.90;;;;;;5078311;28;20028;-67
2024/01/03 10:13:54;;;;;;;14.18;2.80;;;8.50;99.90;;;;;;5080284;28;20453;-68
2024/01/03 10:16:27;;;;;;;9.35;1.73;;;8.50;99.90;;;;;;5073531;28;20035;-68
2024/01/03 10:19:09;;;;;;;8.77;1.92;;;8.50;99.90;;;;;;5072635;28;20048;-68
2024/01/03 10:21:45;;;;;;;15.20;1.95;;;8.50;99.90;;;;;;5090596;28;20039;-68
2024/01/03 10:24:11;;;;;;;7.13;1.63;;;8.50;99.90;;;;;;5077159;28;20479;-68
2024/01/03 10:26:37;;;;;;;14.43;2.22;;;8.40;99.90;;;;;;5081328;28;20372;-69
2024/01/03 10:29:14;;;;;;;11.85;1.95;;;8.40;99.90;;;;;;5078576;28;20027;-67
2024/01/03 10:31:40;;;;;;;12.48;1.98;;;8.50;99.90;;;;;;5076072;28;20390;-68
2024/01/03 10:34:12;;;;;;;9.25;1.65;;;8.60;99.90;;;;;;5078687;28;20070;-68
2024/01/03 10:36:42;;;;;;;12.23;2.05;;;8.70;99.90;;;;;;5078394;28;20024;-68
2024/01/03 10:39:20;;;;;;;13.77;2.08;;;8.70;99.90;;;;;;5079889;28;20025;-68
2024/01/03 10:41:49;;;;;;;4.38;1.30;;;8.90;99.90;;;;;;5077225;28;20499;-68
2024/01/03 10:44:16;;;;;;;10.10;2.13;;;9.00;99.90;;;;;;5087588;28;20024;-68
2024/01/03 10:46:46;;;;;;;11.35;2.03;;;9.10;99.90;;;;;;5077397;28;20115;-68
2024/01/03 10:49:12;;;;;;;9.57;1.58;;;9.10;99.90;;;;;;5080620;28;20020;-67
2024/01/03 10:51:43;;;;;;;6.13;1.25;;;9.20;99.90;;;;;;5078097;28;20119;-68
2024/01/03 10:54:16;;;;;;;6.30;1.63;;;9.20;99.90;;;;;;5080596;28;20067;-66
2024/01/03 10:56:47;;;;;;;4.28;1.17;;;9.50;99.90;;;;;;5077888;28;20051;-66
2024/01/03 10:59:13;;;;;;;7.88;1.70;;;9.40;99.90;;;;;;5077119;28;20048;-66
2024/01/03 11:02:05;;;;;;;13.65;1.45;;;9.50;99.90;;;;;;5077515;28;20127;-68
2024/01/03 11:04:54;;;;;;;8.57;1.58;;;9.50;99.90;;;;;;5076222;28;20044;-67
2024/01/03 11:07:33;;;;;;;11.68;1.85;;;9.50;99.90;;;;;;5073539;28;20036;-67
2024/01/03 11:09:58;;;;;;;11.77;1.95;;;9.60;99.90;;;;;;5079249;28;20379;-67
2024/01/03 11:12:28;;;;;;;10.57;1.85;;;9.70;99.90;;;;;;5076695;28;20020;-67
2024/01/03 11:14:54;;;;;;;13.43;2.00;;;9.70;99.90;;;;;;5076979;28;20017;-67
2024/01/03 11:17:35;;;;;;;7.60;1.73;;;10.00;99.90;;;;;;5080262;28;20059;-66
2024/01/03 11:20:08;;;;;;;9.30;1.73;;;10.00;99.90;;;;;;5082773;28;20386;-66
2024/01/03 11:22:56;;;;;;;9.60;2.03;;;10.10;99.90;;;;;;5085602;28;20024;-67
2024/01/03 11:25:48;;;;;;;10.07;2.30;;;10.00;99.90;;;;;;5074704;28;20028;-67
2024/01/03 11:28:36;;;;;;;11.73;1.73;;;9.90;99.90;;;;;;5072869;28;20105;-66
2024/01/03 11:31:02;;;;;;;8.95;2.28;;;9.80;99.90;;;;;;5075406;28;20024;-67
2024/01/03 11:33:30;;;;;;;7.88;1.70;;;9.80;99.90;;;;;;5079085;28;20531;-67
2024/01/03 11:35:56;;;;;;;11.45;1.90;;;9.80;99.90;;;;;;5077582;28;20456;-67
2024/01/03 11:38:40;;;;;;;11.90;1.70;;;9.70;99.90;;;;;;5079508;28;20073;-66
2024/01/03 11:41:08;;;;;;;7.40;1.75;;;9.70;99.90;;;;;;5086654;28;20031;-68
2024/01/03 11:43:34;;;;;;;11.98;1.95;;;9.70;99.90;;;;;;5076927;28;20467;-67
2024/01/03 11:46:10;;;;;;;7.47;1.25;;;9.70;99.90;;;;;;5080925;28;20021;-67
2024/01/03 11:48:38;;;;;;;12.40;2.30;;;9.60;99.90;;;;;;5079486;28;20108;-67
2024/01/03 11:51:22;;;;;;;11.75;2.38;;;9.50;99.90;;;;;;5080785;28;20535;-67
2024/01/03 11:53:48;;;;;;;7.95;1.80;;;9.40;99.90;;;;;;5081378;28;20483;-67
2024/01/03 11:56:28;;;;;;;7.93;2.08;;;9.40;99.90;;;;;;5083638;28;20035;-67
2024/01/03 11:58:57;;;;;;;8.48;1.63;;;9.40;99.90;;;;;;5078120;28;20061;-67
2024/01/03 12:01:24;;;;;;;6.15;1.77;;;;;;;;;;5086838;28;20819;-67
2024/01/03 12:03:51;;;;;;;8.48;2.03;;;9.20;99.90;;;;;;5082654;28;20379;-67
2024/01/03 12:06:20;;;;;;;10.88;1.60;;;9.10;99.90;;;;;;5080188;28;20036;-68
2024/01/03 12:08:46;;;;;;;6.65;1.77;;;9.10;99.90;;;;;;5082809;28;20031;-67
2024/01/03 12:11:12;;;;;;;15.48;2.13;;;9.10;99.90;;;;;;5079894;28;20048;-67
2024/01/03 12:13:38;;;;;;;10.35;2.10;;;9.10;99.90;;;;;;5082229;28;20024;-68
2024/01/03 12:16:04;;;;;;;11.60;1.92;;;9.10;99.90;;;;;;5080022;28;20499;-68
2024/01/03 12:18:31;;;;;;;10.65;2.22;;;9.20;99.90;;;;;;5081361;28;20039;-68
2024/01/03 12:20:57;;;;;;;10.75;2.17;;;9.30;99.90;;;;;;5080780;28;20024;-67
2024/01/03 12:23:23;;;;;;;13.82;2.55;;;9.30;99.90;;;;;;5080192;28;20024;-67
2024/01/03 12:25:48;;;;;;;11.70;2.25;;;9.30;99.90;;;;;;5079458;28;20450;-68
2024/01/03 12:28:20;;;;;;;9.95;1.90;;;9.50;99.90;;;;;;5081012;28;20071;-67
2024/01/03 12:30:46;;;;;;;9.70;2.15;;;9.60;99.90;;;;;;5077490;28;20045;-67
2024/01/03 12:33:13;;;;;;;14.07;2.20;;;9.70;99.90;;;;;;5082504;28;20178;-67
2024/01/03 12:35:39;;;;;;;12.13;2.00;;;9.80;99.90;;;;;;5074806;28;20031;-68
2024/01/03 12:38:05;;;;;;;9.77;1.85;;;9.80;99.90;;;;;;5082393;28;20032;-68
2024/01/03 12:40:31;;;;;;;11.25;2.78;;;9.80;99.90;;;;;;5079904;28;20024;-67
2024/01/03 12:42:56;;;;;;;12.52;1.80;;;9.90;99.90;;;;;;5087767;28;20554;-68
2024/01/03 12:45:22;;;;;;;9.38;1.92;;;9.90;99.90;;;;;;5080892;28;20020;-68
2024/01/03 12:47:48;;;;;;;11.02;1.67;;;9.90;99.90;;;;;;5078403;28;20564;-67
2024/01/03 12:50:14;;;;;;;11.13;1.75;;;10.00;99.90;;;;;;5079887;28;20020;-67
2024/01/03 12:52:40;;;;;;;9.48;1.70;;;10.00;99.90;;;;;;5081046;28;20016;-67